sensor_id;sensor_type;location;lat;lon;timestamp;temperature;humidity
8261;DHT22;64115;50.170;8.242;2023-07-31T00:01:18;15.10;99.90
8261;DHT22;64115;50.170;8.242;2023-07-31T00:03:45;15.10;99.90
8261;DHT22;64115;50.170;8.242;2023-07-31T00:06:14;15.00;99.90
8261;DHT22;64115;50.170;8.242;2023-07-31T00:08:40;15.00;99.90
8261;DHT22;64115;50.170;8.242;2023-07-31T00:11:07;15.00;99.90
8261;DHT22;64115;50.170;8.242;2023-07-31T00:13:34;15.00;99.90
8261;DHT22;64115;50.170;8.242;2023-07-31T00:16:01;14.90;99.90
8261;DHT22;64115;50.170;8.242;2023-07-31T00:18:27;14.90;99.90
8261;DHT22;64115;50.170;8.242;2023-07-31T00:20:54;14.90;99.90
8261;DHT22;64115;50.170;8.242;2023-07-31T00:23:22;14.90;99.90
8261;DHT22;64115;50.170;8.242;2023-07-31T00:25:49;14.80;99.90
8261;DHT22;64115;50.170;8.242;2023-07-31T00:28:16;14.80;99.90
8261;DHT22;64115;50.170;8.242;2023-07-31T00:30:42;14.90;99.90
8261;DHT22;64115;50.170;8.242;2023-07-31T00:33:09;14.80;99.90
8261;DHT22;64115;50.170;8.242;2023-07-31T00:35:36;14.80;99.90
8261;DHT22;64115;50.170;8.242;2023-07-31T00:38:02;14.80;99.90
8261;DHT22;64115;50.170;8.242;2023-07-31T00:40:34;14.80;99.90
8261;DHT22;64115;50.170;8.242;2023-07-31T00:43:01;14.80;99.90
8261;DHT22;64115;50.170;8.242;2023-07-31T00:45:28;14.80;99.90
8261;DHT22;64115;50.170;8.242;2023-07-31T00:47:55;14.80;99.90
8261;DHT22;64115;50.170;8.242;2023-07-31T00:50:24;14.80;99.90
8261;DHT22;64115;50.170;8.242;2023-07-31T00:52:52;14.80;99.90
8261;DHT22;64115;50.170;8.242;2023-07-31T00:55:19;14.80;99.90
8261;DHT22;64115;50.170;8.242;2023-07-31T00:57:48;14.70;99.90
8261;DHT22;64115;50.170;8.242;2023-07-31T01:00:15;14.70;99.90
8261;DHT22;64115;50.170;8.242;2023-07-31T01:02:42;14.70;99.90
8261;DHT22;64115;50.170;8.242;2023-07-31T01:05:09;14.70;99.90
8261;DHT22;64115;50.170;8.242;2023-07-31T01:07:42;14.70;99.90
8261;DHT22;64115;50.170;8.242;2023-07-31T01:10:15;14.70;99.90
8261;DHT22;64115;50.170;8.242;2023-07-31T01:12:45;14.70;99.90
8261;DHT22;64115;50.170;8.242;2023-07-31T01:15:13;14.70;99.90
8261;DHT22;64115;50.170;8.242;2023-07-31T01:17:41;14.70;99.90
8261;DHT22;64115;50.170;8.242;2023-07-31T01:20:11;14.70;99.90
8261;DHT22;64115;50.170;8.242;2023-07-31T01:23:05;14.70;99.90
8261;DHT22;64115;50.170;8.242;2023-07-31T01:26:00;14.80;99.90
8261;DHT22;64115;50.170;8.242;2023-07-31T01:28:38;14.80;99.90
8261;DHT22;64115;50.170;8.242;2023-07-31T01:31:07;14.80;99.90
8261;DHT22;64115;50.170;8.242;2023-07-31T01:33:36;14.80;99.90
8261;DHT22;64115;50.170;8.242;2023-07-31T01:36:04;14.80;99.90
8261;DHT22;64115;50.170;8.242;2023-07-31T01:38:31;14.80;99.90
8261;DHT22;64115;50.170;8.242;2023-07-31T01:40:59;14.90;99.90
8261;DHT22;64115;50.170;8.242;2023-07-31T01:43:26;14.90;99.90
8261;DHT22;64115;50.170;8.242;2023-07-31T01:45:53;14.90;99.90
8261;DHT22;64115;50.170;8.242;2023-07-31T01:48:20;14.90;99.90
8261;DHT22;64115;50.170;8.242;2023-07-31T01:50:46;14.90;99.90
8261;DHT22;64115;50.170;8.242;2023-07-31T01:53:17;14.90;99.90
8261;DHT22;64115;50.170;8.242;2023-07-31T01:55:44;14.90;99.90
8261;DHT22;64115;50.170;8.242;2023-07-31T01:58:12;14.90;99.90
8261;DHT22;64115;50.170;8.242;2023-07-31T02:00:39;14.80;99.90
8261;DHT22;64115;50.170;8.242;2023-07-31T02:03:06;14.90;99.90
8261;DHT22;64115;50.170;8.242;2023-07-31T02:05:32;14.90;99.90
8261;DHT22;64115;50.170;8.242;2023-07-31T02:08:02;14.90;99.90
8261;DHT22;64115;50.170;8.242;2023-07-31T02:10:29;14.90;99.90
8261;DHT22;64115;50.170;8.242;2023-07-31T02:12:55;14.90;99.90
8261;DHT22;64115;50.170;8.242;2023-07-31T02:15:24;14.90;99.90
8261;DHT22;64115;50.170;8.242;2023-07-31T02:17:51;15.00;99.90
8261;DHT22;64115;50.170;8.242;2023-07-31T02:20:18;15.00;99.90
8261;DHT22;64115;50.170;8.242;2023-07-31T02:22:47;15.00;99.90
8261;DHT22;64115;50.170;8.242;2023-07-31T02:25:14;15.10;99.90
8261;DHT22;64115;50.170;8.242;2023-07-31T02:27:41;15.10;99.90
8261;DHT22;64115;50.170;8.242;2023-07-31T02:30:08;15.10;99.90
8261;DHT22;64115;50.170;8.242;2023-07-31T02:32:39;15.10;99.90
8261;DHT22;64115;50.170;8.242;2023-07-31T02:35:06;15.10;99.90
8261;DHT22;64115;50.170;8.242;2023-07-31T02:37:34;15.10;99.90
8261;DHT22;64115;50.170;8.242;2023-07-31T02:40:00;15.10;99.90
8261;DHT22;64115;50.170;8.242;2023-07-31T02:42:27;15.10;99.90
8261;DHT22;64115;50.170;8.242;2023-07-31T02:44:54;15.10;99.90
8261;DHT22;64115;50.170;8.242;2023-07-31T02:47:21;15.10;99.90
8261;DHT22;64115;50.170;8.242;2023-07-31T02:49:49;15.10;99.90
8261;DHT22;64115;50.170;8.242;2023-07-31T02:52:16;15.10;99.90
8261;DHT22;64115;50.170;8.242;2023-07-31T02:54:43;15.10;99.90
8261;DHT22;64115;50.170;8.242;2023-07-31T02:57:09;15.10;99.90
8261;DHT22;64115;50.170;8.242;2023-07-31T02:59:36;15.10;99.90
8261;DHT22;64115;50.170;8.242;2023-07-31T03:02:03;15.10;99.90
8261;DHT22;64115;50.170;8.242;2023-07-31T03:04:30;15.10;99.90
8261;DHT22;64115;50.170;8.242;2023-07-31T03:06:58;15.10;99.90
8261;DHT22;64115;50.170;8.242;2023-07-31T03:09:25;15.00;99.90
8261;DHT22;64115;50.170;8.242;2023-07-31T03:11:51;15.00;99.90
8261;DHT22;64115;50.170;8.242;2023-07-31T03:14:18;15.00;99.90
8261;DHT22;64115;50.170;8.242;2023-07-31T03:16:45;15.00;99.90
8261;DHT22;64115;50.170;8.242;2023-07-31T03:19:12;14.90;99.90
8261;DHT22;64115;50.170;8.242;2023-07-31T03:21:38;14.90;99.90
8261;DHT22;64115;50.170;8.242;2023-07-31T03:24:06;14.90;99.90
8261;DHT22;64115;50.170;8.242;2023-07-31T03:26:33;14.90;99.90
8261;DHT22;64115;50.170;8.242;2023-07-31T03:29:01;14.90;99.90
8261;DHT22;64115;50.170;8.242;2023-07-31T03:31:28;14.90;99.90
8261;DHT22;64115;50.170;8.242;2023-07-31T03:33:55;14.90;99.90
8261;DHT22;64115;50.170;8.242;2023-07-31T03:36:21;14.90;99.90
8261;DHT22;64115;50.170;8.242;2023-07-31T03:38:48;14.90;99.90
8261;DHT22;64115;50.170;8.242;2023-07-31T03:41:16;14.90;99.90
8261;DHT22;64115;50.170;8.242;2023-07-31T03:43:44;14.90;99.90
8261;DHT22;64115;50.170;8.242;2023-07-31T03:46:11;14.90;99.90
8261;DHT22;64115;50.170;8.242;2023-07-31T03:48:38;14.90;99.90
8261;DHT22;64115;50.170;8.242;2023-07-31T03:51:05;14.90;99.90
8261;DHT22;64115;50.170;8.242;2023-07-31T03:53:34;15.00;99.90
8261;DHT22;64115;50.170;8.242;2023-07-31T03:56:00;14.90;99.90
8261;DHT22;64115;50.170;8.242;2023-07-31T03:58:31;14.90;99.90
8261;DHT22;64115;50.170;8.242;2023-07-31T04:00:58;15.00;99.90
8261;DHT22;64115;50.170;8.242;2023-07-31T04:03:25;15.00;99.90
8261;DHT22;64115;50.170;8.242;2023-07-31T04:05:54;15.00;99.90
8261;DHT22;64115;50.170;8.242;2023-07-31T04:08:21;15.00;99.90
8261;DHT22;64115;50.170;8.242;2023-07-31T04:10:48;15.00;99.90
8261;DHT22;64115;50.170;8.242;2023-07-31T04:13:15;15.00;99.90
8261;DHT22;64115;50.170;8.242;2023-07-31T04:15:48;15.00;99.90
8261;DHT22;64115;50.170;8.242;2023-07-31T04:18:15;15.00;99.90
8261;DHT22;64115;50.170;8.242;2023-07-31T04:20:42;15.00;99.90
8261;DHT22;64115;50.170;8.242;2023-07-31T04:23:09;15.00;99.90
8261;DHT22;64115;50.170;8.242;2023-07-31T04:25:36;15.10;99.90
8261;DHT22;64115;50.170;8.242;2023-07-31T04:28:03;15.10;99.90
8261;DHT22;64115;50.170;8.242;2023-07-31T04:30:32;15.10;99.90
8261;DHT22;64115;50.170;8.242;2023-07-31T04:33:03;15.10;99.90
8261;DHT22;64115;50.170;8.242;2023-07-31T04:35:32;15.10;99.90
8261;DHT22;64115;50.170;8.242;2023-07-31T04:38:02;15.10;99.90
8261;DHT22;64115;50.170;8.242;2023-07-31T04:40:29;15.20;99.90
8261;DHT22;64115;50.170;8.242;2023-07-31T04:42:58;15.20;99.90
8261;DHT22;64115;50.170;8.242;2023-07-31T04:45:25;15.20;99.90
8261;DHT22;64115;50.170;8.242;2023-07-31T04:47:52;15.10;99.90
8261;DHT22;64115;50.170;8.242;2023-07-31T04:50:20;15.20;99.90
8261;DHT22;64115;50.170;8.242;2023-07-31T04:52:46;15.20;99.90
8261;DHT22;64115;50.170;8.242;2023-07-31T04:55:13;15.20;99.90
8261;DHT22;64115;50.170;8.242;2023-07-31T04:57:40;15.20;99.90
8261;DHT22;64115;50.170;8.242;2023-07-31T05:00:07;15.20;99.90
8261;DHT22;64115;50.170;8.242;2023-07-31T05:02:34;15.30;99.90
8261;DHT22;64115;50.170;8.242;2023-07-31T05:05:00;15.30;99.90
8261;DHT22;64115;50.170;8.242;2023-07-31T05:07:28;15.30;99.90
8261;DHT22;64115;50.170;8.242;2023-07-31T05:09:55;15.30;99.90
8261;DHT22;64115;50.170;8.242;2023-07-31T05:12:22;15.30;99.90
8261;DHT22;64115;50.170;8.242;2023-07-31T05:14:49;15.30;99.90
8261;DHT22;64115;50.170;8.242;2023-07-31T05:17:15;15.30;99.90
8261;DHT22;64115;50.170;8.242;2023-07-31T05:19:42;15.30;99.90
8261;DHT22;64115;50.170;8.242;2023-07-31T05:22:09;15.30;99.90
8261;DHT22;64115;50.170;8.242;2023-07-31T05:24:37;15.30;99.90
8261;DHT22;64115;50.170;8.242;2023-07-31T05:27:04;15.30;99.90
8261;DHT22;64115;50.170;8.242;2023-07-31T05:29:31;15.30;99.90
8261;DHT22;64115;50.170;8.242;2023-07-31T05:31:58;15.30;99.90
8261;DHT22;64115;50.170;8.242;2023-07-31T05:34:25;15.30;99.90
8261;DHT22;64115;50.170;8.242;2023-07-31T05:36:51;15.30;99.90
8261;DHT22;64115;50.170;8.242;2023-07-31T05:39:18;15.20;99.90
8261;DHT22;64115;50.170;8.242;2023-07-31T05:41:46;15.20;99.90
8261;DHT22;64115;50.170;8.242;2023-07-31T05:44:13;15.20;99.90
8261;DHT22;64115;50.170;8.242;2023-07-31T05:46:40;15.20;99.90
8261;DHT22;64115;50.170;8.242;2023-07-31T05:49:07;15.30;99.90
8261;DHT22;64115;50.170;8.242;2023-07-31T05:51:34;15.30;99.90
8261;DHT22;64115;50.170;8.242;2023-07-31T05:54:00;15.30;99.90
8261;DHT22;64115;50.170;8.242;2023-07-31T05:56:27;15.30;99.90
8261;DHT22;64115;50.170;8.242;2023-07-31T05:58:55;15.20;99.90
8261;DHT22;64115;50.170;8.242;2023-07-31T06:01:22;15.30;99.90
8261;DHT22;64115;50.170;8.242;2023-07-31T06:03:49;15.30;99.90
8261;DHT22;64115;50.170;8.242;2023-07-31T06:06:16;15.30;99.90
8261;DHT22;64115;50.170;8.242;2023-07-31T06:08:43;15.30;99.90
8261;DHT22;64115;50.170;8.242;2023-07-31T06:11:09;15.40;99.90
8261;DHT22;64115;50.170;8.242;2023-07-31T06:13:36;15.50;99.90
8261;DHT22;64115;50.170;8.242;2023-07-31T06:16:04;15.50;99.90
8261;DHT22;64115;50.170;8.242;2023-07-31T06:18:31;15.60;99.90
8261;DHT22;64115;50.170;8.242;2023-07-31T06:20:58;15.70;99.90
8261;DHT22;64115;50.170;8.242;2023-07-31T06:23:25;15.60;99.90
8261;DHT22;64115;50.170;8.242;2023-07-31T06:25:52;15.70;99.90
8261;DHT22;64115;50.170;8.242;2023-07-31T06:28:19;15.70;99.90
8261;DHT22;64115;50.170;8.242;2023-07-31T06:30:45;15.70;99.90
8261;DHT22;64115;50.170;8.242;2023-07-31T06:33:14;15.60;99.90
8261;DHT22;64115;50.170;8.242;2023-07-31T06:35:40;15.70;99.90
8261;DHT22;64115;50.170;8.242;2023-07-31T06:38:07;15.70;99.90
8261;DHT22;64115;50.170;8.242;2023-07-31T06:40:34;15.70;99.90
8261;DHT22;64115;50.170;8.242;2023-07-31T06:43:00;15.80;99.90
8261;DHT22;64115;50.170;8.242;2023-07-31T06:45:33;16.00;99.90
8261;DHT22;64115;50.170;8.242;2023-07-31T06:48:00;16.30;99.90
8261;DHT22;64115;50.170;8.242;2023-07-31T06:50:28;16.30;99.90
8261;DHT22;64115;50.170;8.242;2023-07-31T06:52:55;16.30;99.90
8261;DHT22;64115;50.170;8.242;2023-07-31T06:55:23;16.30;99.90
8261;DHT22;64115;50.170;8.242;2023-07-31T06:57:50;16.50;99.90
8261;DHT22;64115;50.170;8.242;2023-07-31T07:00:18;16.80;99.90
8261;DHT22;64115;50.170;8.242;2023-07-31T07:02:45;17.00;99.90
8261;DHT22;64115;50.170;8.242;2023-07-31T07:05:13;17.20;99.90
8261;DHT22;64115;50.170;8.242;2023-07-31T07:07:41;17.20;99.90
8261;DHT22;64115;50.170;8.242;2023-07-31T07:10:09;17.30;99.90
8261;DHT22;64115;50.170;8.242;2023-07-31T07:12:36;17.50;99.90
8261;DHT22;64115;50.170;8.242;2023-07-31T07:15:03;17.80;99.90
8261;DHT22;64115;50.170;8.242;2023-07-31T07:17:30;17.90;99.90
8261;DHT22;64115;50.170;8.242;2023-07-31T07:19:58;18.00;99.90
8261;DHT22;64115;50.170;8.242;2023-07-31T07:22:25;17.90;99.90
8261;DHT22;64115;50.170;8.242;2023-07-31T07:24:53;17.70;99.90
8261;DHT22;64115;50.170;8.242;2023-07-31T07:27:20;17.60;99.90
8261;DHT22;64115;50.170;8.242;2023-07-31T07:29:47;17.40;99.90
8261;DHT22;64115;50.170;8.242;2023-07-31T07:32:16;17.40;99.90
8261;DHT22;64115;50.170;8.242;2023-07-31T07:34:44;17.40;99.90
8261;DHT22;64115;50.170;8.242;2023-07-31T07:37:11;17.40;99.90
8261;DHT22;64115;50.170;8.242;2023-07-31T07:39:38;17.50;99.90
8261;DHT22;64115;50.170;8.242;2023-07-31T07:42:06;17.40;99.90
8261;DHT22;64115;50.170;8.242;2023-07-31T07:44:33;17.30;99.90
8261;DHT22;64115;50.170;8.242;2023-07-31T07:47:00;17.30;99.90
8261;DHT22;64115;50.170;8.242;2023-07-31T07:49:27;17.20;99.90
8261;DHT22;64115;50.170;8.242;2023-07-31T07:51:54;17.20;99.90
8261;DHT22;64115;50.170;8.242;2023-07-31T07:54:21;17.10;99.90
8261;DHT22;64115;50.170;8.242;2023-07-31T07:56:48;17.10;99.90
8261;DHT22;64115;50.170;8.242;2023-07-31T07:59:16;17.20;99.90
8261;DHT22;64115;50.170;8.242;2023-07-31T08:01:43;17.20;99.90
8261;DHT22;64115;50.170;8.242;2023-07-31T08:04:10;17.20;99.90
8261;DHT22;64115;50.170;8.242;2023-07-31T08:06:37;17.30;99.90
8261;DHT22;64115;50.170;8.242;2023-07-31T08:09:03;17.40;99.90
8261;DHT22;64115;50.170;8.242;2023-07-31T08:11:31;17.40;99.90
8261;DHT22;64115;50.170;8.242;2023-07-31T08:14:01;17.50;99.90
8261;DHT22;64115;50.170;8.242;2023-07-31T08:16:29;17.50;99.90
8261;DHT22;64115;50.170;8.242;2023-07-31T08:18:56;17.60;99.90
8261;DHT22;64115;50.170;8.242;2023-07-31T08:21:23;17.70;99.90
8261;DHT22;64115;50.170;8.242;2023-07-31T08:23:50;17.70;99.90
8261;DHT22;64115;50.170;8.242;2023-07-31T08:26:17;17.70;99.90
8261;DHT22;64115;50.170;8.242;2023-07-31T08:28:44;17.80;99.90
8261;DHT22;64115;50.170;8.242;2023-07-31T08:31:12;17.90;99.90
8261;DHT22;64115;50.170;8.242;2023-07-31T08:33:40;17.90;99.90
8261;DHT22;64115;50.170;8.242;2023-07-31T08:36:07;18.00;99.90
8261;DHT22;64115;50.170;8.242;2023-07-31T08:38:34;18.10;99.90
8261;DHT22;64115;50.170;8.242;2023-07-31T08:41:03;18.10;99.90
8261;DHT22;64115;50.170;8.242;2023-07-31T08:43:30;18.20;99.90
8261;DHT22;64115;50.170;8.242;2023-07-31T08:45:57;18.20;99.90
8261;DHT22;64115;50.170;8.242;2023-07-31T08:48:24;18.10;99.90
8261;DHT22;64115;50.170;8.242;2023-07-31T08:50:53;18.20;99.90
8261;DHT22;64115;50.170;8.242;2023-07-31T08:53:20;18.30;99.90
8261;DHT22;64115;50.170;8.242;2023-07-31T08:55:47;18.40;99.90
8261;DHT22;64115;50.170;8.242;2023-07-31T08:58:15;18.30;99.90
8261;DHT22;64115;50.170;8.242;2023-07-31T09:00:42;18.30;99.90
8261;DHT22;64115;50.170;8.242;2023-07-31T09:03:14;18.20;99.90
8261;DHT22;64115;50.170;8.242;2023-07-31T09:05:43;18.00;99.90
8261;DHT22;64115;50.170;8.242;2023-07-31T09:08:13;17.90;99.90
8261;DHT22;64115;50.170;8.242;2023-07-31T09:10:43;17.90;99.90
8261;DHT22;64115;50.170;8.242;2023-07-31T09:13:11;17.90;99.90
8261;DHT22;64115;50.170;8.242;2023-07-31T09:15:39;17.80;99.90
8261;DHT22;64115;50.170;8.242;2023-07-31T09:18:07;17.80;99.90
8261;DHT22;64115;50.170;8.242;2023-07-31T09:20:34;17.90;99.90
8261;DHT22;64115;50.170;8.242;2023-07-31T09:23:08;17.90;99.90
8261;DHT22;64115;50.170;8.242;2023-07-31T09:25:37;17.90;99.90
8261;DHT22;64115;50.170;8.242;2023-07-31T09:28:06;17.80;99.90
8261;DHT22;64115;50.170;8.242;2023-07-31T09:30:45;17.80;99.90
8261;DHT22;64115;50.170;8.242;2023-07-31T09:33:13;17.80;99.90
8261;DHT22;64115;50.170;8.242;2023-07-31T09:35:40;17.90;99.90
8261;DHT22;64115;50.170;8.242;2023-07-31T09:38:09;18.00;99.90
8261;DHT22;64115;50.170;8.242;2023-07-31T09:40:39;18.10;99.90
8261;DHT22;64115;50.170;8.242;2023-07-31T09:43:09;18.40;99.90
8261;DHT22;64115;50.170;8.242;2023-07-31T09:45:38;18.50;99.90
8261;DHT22;64115;50.170;8.242;2023-07-31T09:48:07;18.70;99.90
8261;DHT22;64115;50.170;8.242;2023-07-31T09:50:37;19.00;99.90
8261;DHT22;64115;50.170;8.242;2023-07-31T09:53:04;19.30;99.90
8261;DHT22;64115;50.170;8.242;2023-07-31T09:55:32;19.60;99.90
8261;DHT22;64115;50.170;8.242;2023-07-31T09:58:03;19.60;99.90
8261;DHT22;64115;50.170;8.242;2023-07-31T10:00:30;19.60;99.90
8261;DHT22;64115;50.170;8.242;2023-07-31T10:02:59;19.60;99.90
8261;DHT22;64115;50.170;8.242;2023-07-31T10:05:30;19.50;99.90
8261;DHT22;64115;50.170;8.242;2023-07-31T10:07:58;19.30;99.90
8261;DHT22;64115;50.170;8.242;2023-07-31T10:10:25;19.10;99.90
8261;DHT22;64115;50.170;8.242;2023-07-31T10:12:53;18.90;99.90
8261;DHT22;64115;50.170;8.242;2023-07-31T10:15:21;18.90;99.90
8261;DHT22;64115;50.170;8.242;2023-07-31T10:17:49;19.00;99.90
8261;DHT22;64115;50.170;8.242;2023-07-31T10:20:17;19.10;99.90
8261;DHT22;64115;50.170;8.242;2023-07-31T10:22:44;19.10;99.90
8261;DHT22;64115;50.170;8.242;2023-07-31T10:25:12;19.20;99.90
8261;DHT22;64115;50.170;8.242;2023-07-31T10:27:39;19.40;99.90
8261;DHT22;64115;50.170;8.242;2023-07-31T10:30:08;19.70;99.90
8261;DHT22;64115;50.170;8.242;2023-07-31T10:32:38;19.80;99.90
8261;DHT22;64115;50.170;8.242;2023-07-31T10:35:06;20.00;99.90
8261;DHT22;64115;50.170;8.242;2023-07-31T10:37:37;20.00;99.90
8261;DHT22;64115;50.170;8.242;2023-07-31T10:40:07;20.10;99.90
8261;DHT22;64115;50.170;8.242;2023-07-31T10:42:37;20.10;99.90
8261;DHT22;64115;50.170;8.242;2023-07-31T10:45:09;20.10;99.90
8261;DHT22;64115;50.170;8.242;2023-07-31T10:47:42;20.20;99.90
8261;DHT22;64115;50.170;8.242;2023-07-31T10:50:17;20.20;99.90
8261;DHT22;64115;50.170;8.242;2023-07-31T10:52:50;20.10;99.90
8261;DHT22;64115;50.170;8.242;2023-07-31T10:55:28;20.10;99.90
8261;DHT22;64115;50.170;8.242;2023-07-31T10:57:56;20.10;99.90
8261;DHT22;64115;50.170;8.242;2023-07-31T11:00:26;20.10;99.90
8261;DHT22;64115;50.170;8.242;2023-07-31T11:02:59;20.10;99.90
8261;DHT22;64115;50.170;8.242;2023-07-31T11:05:48;20.10;99.90
8261;DHT22;64115;50.170;8.242;2023-07-31T11:08:18;20.00;99.90
8261;DHT22;64115;50.170;8.242;2023-07-31T11:10:48;20.00;99.90
8261;DHT22;64115;50.170;8.242;2023-07-31T11:13:15;20.00;99.90
8261;DHT22;64115;50.170;8.242;2023-07-31T11:15:42;19.90;99.90
8261;DHT22;64115;50.170;8.242;2023-07-31T11:18:10;19.70;99.90
8261;DHT22;64115;50.170;8.242;2023-07-31T11:20:38;19.50;99.90
8261;DHT22;64115;50.170;8.242;2023-07-31T11:23:07;19.40;99.90
8261;DHT22;64115;50.170;8.242;2023-07-31T11:25:36;19.40;99.90
8261;DHT22;64115;50.170;8.242;2023-07-31T11:28:04;19.50;99.90
8261;DHT22;64115;50.170;8.242;2023-07-31T11:30:31;19.60;99.90
8261;DHT22;64115;50.170;8.242;2023-07-31T11:32:59;19.70;99.90
8261;DHT22;64115;50.170;8.242;2023-07-31T11:35:27;19.80;99.90
8261;DHT22;64115;50.170;8.242;2023-07-31T11:37:55;19.90;99.90
8261;DHT22;64115;50.170;8.242;2023-07-31T11:40:22;20.00;99.90
8261;DHT22;64115;50.170;8.242;2023-07-31T11:42:54;19.90;99.90
8261;DHT22;64115;50.170;8.242;2023-07-31T11:45:25;19.70;99.90
8261;DHT22;64115;50.170;8.242;2023-07-31T11:47:54;19.70;99.90
8261;DHT22;64115;50.170;8.242;2023-07-31T11:50:21;19.40;99.90
8261;DHT22;64115;50.170;8.242;2023-07-31T11:52:54;19.40;99.90
8261;DHT22;64115;50.170;8.242;2023-07-31T11:55:22;19.30;99.90
8261;DHT22;64115;50.170;8.242;2023-07-31T11:57:49;19.30;99.90
8261;DHT22;64115;50.170;8.242;2023-07-31T12:00:17;19.20;99.90
8261;DHT22;64115;50.170;8.242;2023-07-31T12:02:44;19.20;99.90
8261;DHT22;64115;50.170;8.242;2023-07-31T12:05:11;19.30;99.90
8261;DHT22;64115;50.170;8.242;2023-07-31T12:07:52;19.30;99.90
8261;DHT22;64115;50.170;8.242;2023-07-31T12:10:24;19.40;99.90
8261;DHT22;64115;50.170;8.242;2023-07-31T12:13:02;19.60;99.90
8261;DHT22;64115;50.170;8.242;2023-07-31T12:15:37;19.60;99.90
8261;DHT22;64115;50.170;8.242;2023-07-31T12:18:06;19.70;99.90
8261;DHT22;64115;50.170;8.242;2023-07-31T12:20:34;19.70;99.90
8261;DHT22;64115;50.170;8.242;2023-07-31T12:23:02;19.70;99.90
8261;DHT22;64115;50.170;8.242;2023-07-31T12:25:30;19.80;99.90
8261;DHT22;64115;50.170;8.242;2023-07-31T12:27:58;19.90;99.90
8261;DHT22;64115;50.170;8.242;2023-07-31T12:30:33;19.90;99.90
8261;DHT22;64115;50.170;8.242;2023-07-31T12:33:03;20.10;99.90
8261;DHT22;64115;50.170;8.242;2023-07-31T12:35:35;20.30;99.90
8261;DHT22;64115;50.170;8.242;2023-07-31T12:38:04;20.70;99.90
8261;DHT22;64115;50.170;8.242;2023-07-31T12:40:31;21.00;99.90
8261;DHT22;64115;50.170;8.242;2023-07-31T12:42:58;21.20;99.90
8261;DHT22;64115;50.170;8.242;2023-07-31T12:45:24;21.30;99.90
8261;DHT22;64115;50.170;8.242;2023-07-31T12:47:52;21.30;99.90
8261;DHT22;64115;50.170;8.242;2023-07-31T12:50:19;21.40;99.90
8261;DHT22;64115;50.170;8.242;2023-07-31T12:52:49;21.50;99.90
8261;DHT22;64115;50.170;8.242;2023-07-31T12:55:17;21.50;99.90
8261;DHT22;64115;50.170;8.242;2023-07-31T12:57:46;21.60;99.90
8261;DHT22;64115;50.170;8.242;2023-07-31T13:00:14;21.70;99.90
8261;DHT22;64115;50.170;8.242;2023-07-31T13:02:40;21.60;99.90
8261;DHT22;64115;50.170;8.242;2023-07-31T13:05:08;21.70;99.90
8261;DHT22;64115;50.170;8.242;2023-07-31T13:07:35;21.70;99.90
8261;DHT22;64115;50.170;8.242;2023-07-31T13:10:01;21.60;99.90
8261;DHT22;64115;50.170;8.242;2023-07-31T13:12:30;21.50;99.90
8261;DHT22;64115;50.170;8.242;2023-07-31T13:14:56;21.70;99.90
8261;DHT22;64115;50.170;8.242;2023-07-31T13:17:23;21.90;99.90
8261;DHT22;64115;50.170;8.242;2023-07-31T13:19:50;22.00;99.90
8261;DHT22;64115;50.170;8.242;2023-07-31T13:22:17;21.90;99.90
8261;DHT22;64115;50.170;8.242;2023-07-31T13:24:44;21.70;99.90
8261;DHT22;64115;50.170;8.242;2023-07-31T13:27:10;21.60;99.90
8261;DHT22;64115;50.170;8.242;2023-07-31T13:29:38;21.40;99.90
8261;DHT22;64115;50.170;8.242;2023-07-31T13:32:06;21.20;99.90
8261;DHT22;64115;50.170;8.242;2023-07-31T13:34:33;20.90;99.90
8261;DHT22;64115;50.170;8.242;2023-07-31T13:37:00;20.70;99.90
8261;DHT22;64115;50.170;8.242;2023-07-31T13:39:27;20.50;99.90
8261;DHT22;64115;50.170;8.242;2023-07-31T13:41:54;20.40;99.90
8261;DHT22;64115;50.170;8.242;2023-07-31T13:44:21;20.30;99.90
8261;DHT22;64115;50.170;8.242;2023-07-31T13:46:52;20.20;99.90
8261;DHT22;64115;50.170;8.242;2023-07-31T13:49:18;20.00;99.90
8261;DHT22;64115;50.170;8.242;2023-07-31T13:51:45;19.90;99.90
8261;DHT22;64115;50.170;8.242;2023-07-31T13:54:12;19.70;99.90
8261;DHT22;64115;50.170;8.242;2023-07-31T13:56:40;19.60;99.90
8261;DHT22;64115;50.170;8.242;2023-07-31T13:59:07;19.50;99.90
8261;DHT22;64115;50.170;8.242;2023-07-31T14:01:34;19.50;99.90
8261;DHT22;64115;50.170;8.242;2023-07-31T14:04:02;19.50;99.90
8261;DHT22;64115;50.170;8.242;2023-07-31T14:06:29;19.60;99.90
8261;DHT22;64115;50.170;8.242;2023-07-31T14:08:56;19.70;99.90
8261;DHT22;64115;50.170;8.242;2023-07-31T14:11:23;19.80;99.90
8261;DHT22;64115;50.170;8.242;2023-07-31T14:13:50;20.00;99.90
8261;DHT22;64115;50.170;8.242;2023-07-31T14:16:17;20.20;99.90
8261;DHT22;64115;50.170;8.242;2023-07-31T14:18:44;20.30;99.90
8261;DHT22;64115;50.170;8.242;2023-07-31T14:21:13;20.30;99.90
8261;DHT22;64115;50.170;8.242;2023-07-31T14:23:40;20.20;99.90
8261;DHT22;64115;50.170;8.242;2023-07-31T14:26:07;20.00;99.90
8261;DHT22;64115;50.170;8.242;2023-07-31T14:28:34;20.10;99.90
8261;DHT22;64115;50.170;8.242;2023-07-31T14:31:00;20.10;99.90
8261;DHT22;64115;50.170;8.242;2023-07-31T14:33:27;20.20;99.90
8261;DHT22;64115;50.170;8.242;2023-07-31T14:35:54;20.10;99.90
8261;DHT22;64115;50.170;8.242;2023-07-31T14:38:22;20.10;99.90
8261;DHT22;64115;50.170;8.242;2023-07-31T14:40:49;20.10;99.90
8261;DHT22;64115;50.170;8.242;2023-07-31T14:43:16;20.10;99.90
8261;DHT22;64115;50.170;8.242;2023-07-31T14:45:42;20.00;99.90
8261;DHT22;64115;50.170;8.242;2023-07-31T14:48:11;19.80;99.90
8261;DHT22;64115;50.170;8.242;2023-07-31T14:50:38;19.80;99.90
8261;DHT22;64115;50.170;8.242;2023-07-31T14:53:05;19.90;99.90
8261;DHT22;64115;50.170;8.242;2023-07-31T14:55:33;20.00;99.90
8261;DHT22;64115;50.170;8.242;2023-07-31T14:58:00;20.00;99.90
8261;DHT22;64115;50.170;8.242;2023-07-31T15:00:30;19.90;99.90
8261;DHT22;64115;50.170;8.242;2023-07-31T15:02:56;19.70;99.90
8261;DHT22;64115;50.170;8.242;2023-07-31T15:05:23;19.70;99.90
8261;DHT22;64115;50.170;8.242;2023-07-31T15:07:50;19.60;99.90
8261;DHT22;64115;50.170;8.242;2023-07-31T15:10:17;19.40;99.90
8261;DHT22;64115;50.170;8.242;2023-07-31T15:12:45;19.40;99.90
8261;DHT22;64115;50.170;8.242;2023-07-31T15:15:12;19.40;99.90
8261;DHT22;64115;50.170;8.242;2023-07-31T15:17:38;19.10;99.90
8261;DHT22;64115;50.170;8.242;2023-07-31T15:20:06;19.00;99.90
8261;DHT22;64115;50.170;8.242;2023-07-31T15:22:33;19.00;99.90
8261;DHT22;64115;50.170;8.242;2023-07-31T15:25:00;18.90;99.90
8261;DHT22;64115;50.170;8.242;2023-07-31T15:27:27;18.90;99.90
8261;DHT22;64115;50.170;8.242;2023-07-31T15:29:55;18.80;99.90
8261;DHT22;64115;50.170;8.242;2023-07-31T15:32:22;18.80;99.90
8261;DHT22;64115;50.170;8.242;2023-07-31T15:34:49;18.60;99.90
8261;DHT22;64115;50.170;8.242;2023-07-31T15:37:15;18.60;99.90
8261;DHT22;64115;50.170;8.242;2023-07-31T15:39:43;18.60;99.90
8261;DHT22;64115;50.170;8.242;2023-07-31T15:42:10;18.50;99.90
8261;DHT22;64115;50.170;8.242;2023-07-31T15:44:36;18.50;99.90
8261;DHT22;64115;50.170;8.242;2023-07-31T15:47:06;18.40;99.90
8261;DHT22;64115;50.170;8.242;2023-07-31T15:49:35;18.40;99.90